Time;durP1;ratioP1;P1;durP2;ratioP2;P2;SDS_P1;SDS_P2;PMS_P1;PMS_P2;Temp;Humidity;BMP_temperature;BMP_pressure;BME280_temperature;BME280_humidity;BME280_pressure;Samples;Min_cycle;Max_cycle;Signal;HPM_P1;HPM_P2
2023/08/14 00:01:11;;;;;;;7.72;2.85;;;;;;;15.79;100.00;101395.31;5111998;28;20098;-53
2023/08/14 00:03:37;;;;;;;9.93;3.17;;;;;;;15.59;100.00;101358.19;5111835;28;20031;-51
2023/08/14 00:06:02;;;;;;;8.88;3.00;;;;;;;15.97;100.00;101425.47;5112139;28;20040;-50
2023/08/14 00:08:27;;;;;;;9.80;3.35;;;;;;;15.95;100.00;101438.81;5111562;28;20394;-53
2023/08/14 00:10:54;;;;;;;7.63;2.88;;;;;;;15.68;100.00;101389.63;5105259;28;20122;-48
2023/08/14 00:13:20;;;;;;;9.18;3.33;;;;;;;15.42;100.00;101345.63;5093671;28;20482;-50
2023/08/14 00:15:45;;;;;;;7.75;2.83;;;;;;;15.38;100.00;101346.69;5093458;28;20043;-49
2023/08/14 00:18:11;;;;;;;8.73;3.60;;;;;;;15.47;100.00;101367.53;5106874;28;20040;-49
2023/08/14 00:20:36;;;;;;;10.98;3.83;;;;;;;15.34;100.00;101349.56;5080326;28;20032;-49
2023/08/14 00:23:01;;;;;;;7.68;3.47;;;;;;;15.26;100.00;101341.09;5108272;28;20039;-51
2023/08/14 00:25:27;;;;;;;10.25;4.43;;;;;;;15.71;100.00;101418.69;5082323;28;20031;-48
2023/08/14 00:27:53;;;;;;;10.88;3.58;;;;;;;15.33;100.00;101358.44;5096021;28;20380;-51
2023/08/14 00:30:19;;;;;;;7.50;4.07;;;;;;;15.62;100.00;101411.13;5094653;28;20039;-50
2023/08/14 00:32:44;;;;;;;7.90;3.50;;;;;;;15.63;100.00;101426.13;5100427;28;20043;-50
2023/08/14 00:35:09;;;;;;;6.65;3.80;;;;;;;15.16;100.00;101333.53;5091611;28;20074;-54
2023/08/14 00:37:46;;;;;;;8.68;3.63;;;;;;;15.59;100.00;101421.88;5108575;28;20043;-47
2023/08/14 00:40:12;;;;;;;9.07;4.03;;;;;;;15.50;100.00;101409.88;5111362;28;20032;-48
2023/08/14 00:42:38;;;;;;;9.68;3.97;;;;;;;15.11;100.00;101345.25;5093724;28;20035;-50
2023/08/14 00:45:05;;;;;;;7.97;2.95;;;;;;;15.48;100.00;101405.56;5112004;28;20042;-50
2023/08/14 00:47:31;;;;;;;9.57;3.67;;;;;;;15.49;100.00;101410.81;5111545;28;20509;-51
2023/08/14 00:49:56;;;;;;;9.35;3.90;;;;;;;15.01;100.00;101320.94;5090742;28;20051;-49
2023/08/14 00:52:21;;;;;;;13.32;4.00;;;;;;;14.93;100.00;101311.56;5093760;28;20496;-51
2023/08/14 00:54:47;;;;;;;12.60;4.40;;;;;;;15.46;100.00;101396.78;5096192;28;20119;-49
2023/08/14 00:57:12;;;;;;;7.25;4.18;;;;;;;15.25;100.00;101365.88;5092006;28;20067;-48
2023/08/14 00:59:38;;;;;;;10.38;3.92;;;;;;;15.41;100.00;101388.16;5094627;28;20116;-48
2023/08/14 01:02:03;;;;;;;8.35;3.97;;;;;;;14.99;100.00;101327.22;5094836;28;20038;-48
2023/08/14 01:04:28;;;;;;;10.80;3.72;;;;;;;15.37;100.00;101400.69;5076896;28;20497;-50
2023/08/14 01:06:54;;;;;;;9.23;4.28;;;;;;;15.21;100.00;101378.41;5099827;28;20036;-49
2023/08/14 01:09:19;;;;;;;7.97;3.60;;;;;;;15.32;100.00;101404.47;5106953;28;20035;-48
2023/08/14 01:11:59;;;;;;;6.78;3.80;;;;;;;14.80;100.00;101313.88;5097239;28;20095;-49
2023/08/14 01:14:30;;;;;;;6.45;3.60;;;;;;;14.91;100.00;101339.94;5115454;28;20355;-49
2023/08/14 01:16:59;;;;;;;8.23;3.67;;;;;;;15.23;100.00;101411.03;5092436;28;20398;-49
2023/08/14 01:19:29;;;;;;;10.52;4.60;;;;;;;15.05;100.00;101372.03;5114675;28;20027;-49
2023/08/14 01:22:14;;;;;;;10.10;3.90;;;;;;;14.81;100.00;101320.03;5074362;28;20124;-48
2023/08/14 01:24:53;;;;;;;5.93;4.15;;;;;;;15.20;100.00;101396.13;5075446;28;20395;-49
2023/08/14 01:27:19;;;;;;;13.77;4.38;;;;;;;15.19;100.00;101381.13;5076293;28;20066;-53
2023/08/14 01:29:53;;;;;;;9.95;4.18;;;;;;;15.21;100.00;101386.34;5074832;28;20115;-50
2023/08/14 01:32:18;;;;;;;7.45;3.60;;;;;;;14.98;100.00;101342.25;5097912;28;20031;-52
2023/08/14 01:34:44;;;;;;;10.32;4.22;;;;;;;15.19;100.00;101374.97;5107754;28;20032;-49
2023/08/14 01:37:17;;;;;;;8.50;4.35;;;;;;;15.14;100.00;101356.59;5114195;28;20380;-53
2023/08/14 01:39:56;;;;;;;7.40;4.00;;;;;;;15.14;100.00;101375.16;5086007;28;20019;-50
2023/08/14 01:42:27;;;;;;;13.32;4.55;;;;;;;15.11;100.00;101364.69;5054116;28;20057;-50
2023/08/14 01:44:58;;;;;;;6.30;4.03;;;;;;;15.10;100.00;101367.38;5055787;28;20456;-48
2023/08/14 01:47:23;;;;;;;9.88;4.60;;;;;;;15.01;100.00;101347.44;5068650;28;20437;-52
2023/08/14 01:49:51;;;;;;;9.82;4.38;;;;;;;15.11;100.00;101355.88;5074570;28;20039;-49
2023/08/14 01:52:16;;;;;;;8.77;4.47;;;;;;;15.09;100.00;101352.44;5063756;28;20040;-52
2023/08/14 01:54:41;;;;;;;12.00;4.43;;;;;;;14.64;100.00;101275.72;5073267;28;20045;-47
2023/08/14 01:57:07;;;;;;;8.02;4.40;;;;;;;14.63;100.00;101282.81;5073391;28;20043;-47
2023/08/14 01:59:50;;;;;;;7.35;4.28;;;;;;;14.70;100.00;101293.13;5072511;28;20046;-47
2023/08/14 02:02:15;;;;;;;8.00;3.85;;;;;;;15.05;100.00;101348.19;5088666;28;20490;-53
2023/08/14 02:04:41;;;;;;;11.85;4.90;;;;;;;14.47;100.00;101264.97;5082224;28;20042;-52
2023/08/14 02:07:06;;;;;;;9.98;4.28;;;;;;;14.86;100.00;101328.66;5075265;28;20024;-51
2023/08/14 02:09:34;;;;;;;8.05;4.18;;;;;;;14.93;100.00;101346.03;5068167;28;20103;-48
2023/08/14 02:12:00;;;;;;;10.02;4.63;;;;;;;14.55;100.00;101284.91;5086429;28;20040;-48
2023/08/14 02:14:25;;;;;;;10.32;4.28;;;;;;;14.42;100.00;101258.97;5068534;28;20085;-51
2023/08/14 02:16:51;;;;;;;9.43;5.30;;;;;;;14.45;100.00;101265.03;5082112;28;20061;-50
2023/08/14 02:19:16;;;;;;;12.90;4.90;;;;;;;14.84;100.00;101333.16;5072307;28;20037;-49
2023/08/14 02:21:41;;;;;;;8.48;4.03;;;;;;;14.72;100.00;101309.81;5072333;28;20506;-50
2023/08/14 02:24:07;;;;;;;11.90;4.72;;;;;;;14.40;100.00;101259.06;5072702;28;20424;-51
2023/08/14 02:26:33;;;;;;;10.50;4.70;;;;;;;14.80;100.00;101321.81;5073134;28;20044;-48
2023/08/14 02:28:58;;;;;;;10.30;4.55;;;;;;;14.41;100.00;101260.78;5072030;28;20039;-48
2023/08/14 02:31:23;;;;;;;8.52;4.80;;;;;;;14.79;100.00;101328.06;5091664;28;20387;-51
2023/08/14 02:33:49;;;;;;;12.00;4.35;;;;;;;14.76;100.00;101320.25;5087479;28;20128;-52
2023/08/14 02:36:14;;;;;;;10.95;4.22;;;;;;;14.30;100.00;101254.19;5084011;28;20149;-50
2023/08/14 02:38:39;;;;;;;7.18;3.80;;;;;;;14.75;100.00;101328.25;5074999;28;20032;-49
2023/08/14 02:41:06;;;;;;;10.50;3.95;;;;;;;14.72;100.00;101331.91;5081399;28;20063;-51
2023/08/14 02:43:32;;;;;;;6.55;3.88;;;;;;;14.61;100.00;101319.09;5092905;28;20051;-50
2023/08/14 02:45:57;;;;;;;9.60;4.22;;;;;;;14.61;100.00;101335.00;5076109;28;20388;-50
2023/08/14 02:48:23;;;;;;;14.20;3.97;;;;;;;14.58;100.00;101335.13;5075641;28;20033;-52
2023/08/14 02:50:48;;;;;;;10.82;3.97;;;;;;;14.61;100.00;101328.84;5084191;28;20057;-51
2023/08/14 02:53:14;;;;;;;7.82;3.97;;;;;;;14.09;100.00;101238.25;5092541;28;20639;-50
2023/08/14 02:55:39;;;;;;;7.95;4.10;;;;;;;14.20;100.00;101258.97;5092704;28;20062;-53
2023/08/14 02:58:05;;;;;;;6.57;3.90;;;;;;;14.58;100.00;101335.13;5091235;28;20071;-55
2023/08/14 03:00:30;;;;;;;6.05;3.67;;;;;;;14.52;100.00;101324.78;5086254;28;20034;-53
2023/08/14 03:02:55;;;;;;;7.47;3.63;;;;;;;14.55;100.00;101347.63;5072943;28;20044;-50
2023/08/14 03:05:21;;;;;;;9.45;3.90;;;;;;;14.54;100.00;101338.81;5075517;28;20463;-51
2023/08/14 03:07:46;;;;;;;10.38;4.18;;;;;;;14.17;100.00;101274.13;5082475;28;20498;-49
2023/08/14 03:10:11;;;;;;;8.93;3.75;;;;;;;14.53;100.00;101345.06;5070650;28;20045;-48
2023/08/14 03:12:37;;;;;;;7.22;4.03;;;;;;;14.53;100.00;101349.47;5085076;28;20028;-51
2023/08/14 03:15:04;;;;;;;9.70;4.18;;;;;;;14.48;100.00;101340.84;5092475;28;20058;-50
2023/08/14 03:17:29;;;;;;;5.75;3.53;;;;;;;14.48;100.00;101340.84;5076601;28;20055;-49
2023/08/14 03:19:54;;;;;;;8.18;3.78;;;;;;;14.47;100.00;101339.13;5074538;28;20028;-54
2023/08/14 03:22:20;;;;;;;9.35;3.30;;;;;;;14.46;100.00;101334.75;5071661;28;20040;-53
2023/08/14 03:24:45;;;;;;;8.43;3.70;;;;;;;14.44;100.00;101328.66;5071741;28;20039;-50
2023/08/14 03:27:11;;;;;;;8.20;4.13;;;;;;;14.46;100.00;101329.44;5074917;28;20032;-52
2023/08/14 03:29:36;;;;;;;7.55;3.65;;;;;;;14.24;100.00;101288.84;5078269;28;20032;-50
2023/08/14 03:32:01;;;;;;;6.82;3.42;;;;;;;14.45;100.00;101330.38;5070352;28;20036;-50
2023/08/14 03:34:27;;;;;;;11.20;3.75;;;;;;;14.50;100.00;101349.59;5079386;28;20044;-53
2023/08/14 03:36:52;;;;;;;7.30;3.28;;;;;;;14.48;100.00;101322.28;5081368;28;20488;-50
2023/08/14 03:39:17;;;;;;;6.32;3.42;;;;;;;14.49;100.00;101330.19;5074030;28;20036;-49
2023/08/14 03:41:44;;;;;;;8.90;3.47;;;;;;;14.25;100.00;101288.78;5087847;28;20044;-49
2023/08/14 03:44:09;;;;;;;7.38;3.38;;;;;;;14.44;100.00;101329.53;5112292;28;20036;-50
2023/08/14 03:46:35;;;;;;;5.68;3.83;;;;;;;14.48;100.00;101328.47;5108391;28;20036;-50
2023/08/14 03:49:00;;;;;;;7.03;3.35;;;;;;;14.50;100.00;101325.78;5073138;28;20398;-52
2023/08/14 03:51:25;;;;;;;4.72;3.50;;;;;;;14.08;100.00;101268.28;5091791;28;20149;-52
2023/08/14 03:53:51;;;;;;;8.27;3.63;;;;;;;14.52;100.00;101332.72;5084495;28;20047;-49
2023/08/14 03:56:16;;;;;;;9.40;4.18;;;;;;;14.06;100.00;101259.53;5096450;28;20052;-49
2023/08/14 03:58:41;;;;;;;5.28;3.70;;;;;;;14.52;100.00;101339.81;5110550;28;20042;-51
2023/08/14 04:01:07;;;;;;;9.13;3.70;;;;;;;14.53;100.00;101341.53;5110803;28;20036;-52
2023/08/14 04:03:32;;;;;;;6.85;3.20;;;;;;;14.26;100.00;101284.34;5098330;28;20439;-50
2023/08/14 04:06:00;;;;;;;6.13;3.38;;;;;;;14.41;100.00;101319.06;5079912;28;20134;-52
2023/08/14 04:08:25;;;;;;;8.73;4.25;;;;;;;14.56;100.00;101331.66;5073132;28;20446;-50
2023/08/14 04:10:55;;;;;;;5.93;3.45;;;;;;;14.57;100.00;101330.75;5108732;28;20032;-51
2023/08/14 04:13:21;;;;;;;6.03;3.45;;;;;;;14.60;100.00;101324.44;5100308;28;20438;-49
2023/08/14 04:15:46;;;;;;;5.75;2.83;;;;;;;14.54;100.00;101312.31;5098811;28;20462;-55
2023/08/14 04:18:11;;;;;;;5.63;3.00;;;;;;;14.64;100.00;101336.66;5110016;28;20040;-49
2023/08/14 04:20:37;;;;;;;6.03;3.15;;;;;;;14.66;100.00;101321.53;5102658;28;20135;-52
2023/08/14 04:23:02;;;;;;;3.35;2.97;;;;;;;14.49;100.00;101289.59;5099923;28;20130;-50
2023/08/14 04:25:28;;;;;;;5.25;3.38;;;;;;;14.72;100.00;101325.72;5099409;28;20043;-52
2023/08/14 04:27:54;;;;;;;13.77;3.63;;;;;;;14.22;100.00;101237.72;5111664;28;20478;-48
2023/08/14 04:30:20;;;;;;;5.03;3.40;;;;;;;14.72;100.00;101320.44;5090689;28;20043;-50
2023/08/14 04:32:45;;;;;;;7.85;3.72;;;;;;;14.40;100.00;101259.06;5095179;28;20038;-52
2023/08/14 04:35:11;;;;;;;5.82;2.97;;;;;;;14.79;100.00;101319.25;5076748;28;20036;-51
2023/08/14 04:37:36;;;;;;;6.50;3.10;;;;;;;14.39;100.00;101259.97;5078005;28;20047;-54
2023/08/14 04:40:04;;;;;;;5.32;3.42;;;;;;;14.82;100.00;101314.69;5076489;28;20048;-48
2023/08/14 04:42:30;;;;;;;6.78;2.80;;;;;;;14.44;100.00;101243.91;5113723;28;20044;-48
2023/08/14 04:44:55;;;;;;;4.75;3.13;;;;;;;14.51;100.00;101246.22;5115339;28;20031;-48
2023/08/14 04:47:21;;;;;;;5.28;2.83;;;;;;;14.45;100.00;101232.38;5080649;28;20043;-51
2023/08/14 04:49:46;;;;;;;4.13;3.28;;;;;;;14.92;100.00;101305.41;5076701;28;20067;-51
2023/08/14 04:52:11;;;;;;;4.35;3.08;;;;;;;14.73;100.00;101269.16;5095286;28;20050;-53
2023/08/14 04:54:37;;;;;;;6.20;2.95;;;;;;;14.60;100.00;101229.94;5095829;28;20036;-48
2023/08/14 04:57:02;;;;;;;5.57;3.15;;;;;;;15.04;100.00;101306.66;5109300;28;20043;-50
2023/08/14 04:59:28;;;;;;;4.45;2.78;;;;;;;14.65;100.00;101222.66;5101168;28;20109;-49
2023/08/14 05:01:53;;;;;;;3.47;2.92;;;;;;;14.89;100.00;101260.47;5075945;28;20036;-52
2023/08/14 05:04:18;;;;;;;4.32;2.72;;;;;;;14.50;100.00;101183.59;5097088;28;20050;-53
2023/08/14 05:06:44;;;;;;;4.53;3.00;;;;;;;15.15;100.00;101289.38;5095748;28;20115;-52
2023/08/14 05:09:10;;;;;;;9.07;2.80;;;;;;;15.20;100.00;101286.53;5080964;28;20036;-51
2023/08/14 05:11:35;;;;;;;4.18;2.55;;;;;;;15.00;100.00;101246.78;5114947;28;20077;-50
2023/08/14 05:14:00;;;;;;;4.47;2.92;;;;;;;14.86;100.00;101222.63;5114951;28;20032;-48
2023/08/14 05:16:26;;;;;;;5.03;2.53;;;;;;;15.30;100.00;101289.59;5096624;28;20163;-49
2023/08/14 05:18:51;;;;;;;7.03;2.88;;;;;;;15.31;100.00;101296.66;5096426;28;20115;-48
2023/08/14 05:21:16;;;;;;;7.78;3.20;;;;;;;14.92;100.00;101215.28;5076518;28;20120;-49
2023/08/14 05:23:42;;;;;;;6.40;2.80;;;;;;;14.92;100.00;101217.06;5092978;28;20036;-47
2023/08/14 05:26:07;;;;;;;4.82;2.70;;;;;;;15.40;100.00;101304.19;5093975;28;20040;-48
2023/08/14 05:28:32;;;;;;;4.90;2.80;;;;;;;15.30;100.00;101284.31;5093677;28;20399;-51
2023/08/14 05:30:58;;;;;;;6.57;3.15;;;;;;;15.45;100.00;101294.22;5075719;28;20036;-51
2023/08/14 05:33:23;;;;;;;6.57;3.00;;;;;;;15.05;100.00;101228.88;5076631;28;20043;-51
2023/08/14 05:35:49;;;;;;;6.00;3.03;;;;;;;15.51;100.00;101304.59;5099267;28;20085;-51
2023/08/14 05:38:15;;;;;;;5.43;3.60;;;;;;;15.21;100.00;101238.72;5105986;28;20474;-49
2023/08/14 05:40:40;;;;;;;4.68;2.90;;;;;;;15.44;100.00;101258.03;5095751;28;20085;-47
2023/08/14 05:43:07;;;;;;;7.68;3.90;;;;;;;15.68;100.00;101280.81;5100650;28;20089;-53
2023/08/14 05:45:44;;;;;;;7.53;3.60;;;;;;;15.72;100.00;101280.59;5113949;28;20024;-52
2023/08/14 05:48:10;;;;;;;7.93;3.45;;;;;;;15.93;100.00;101296.47;5112676;28;20031;-53
2023/08/14 05:50:36;;;;;;;6.75;3.58;;;;;;;15.68;100.00;101239.22;5113613;28;20055;-49
2023/08/14 05:53:06;;;;;;;4.85;3.00;;;;;;;16.12;100.00;101303.47;5112816;28;20039;-51
2023/08/14 05:55:35;;;;;;;7.68;3.97;;;;;;;15.83;100.00;101228.78;5101299;28;20058;-52
2023/08/14 05:58:05;;;;;;;8.02;4.38;;;;;;;16.28;100.00;101293.84;5108621;28;20497;-48
2023/08/14 06:00:31;;;;;;;3.92;3.30;;;;;;;15.90;100.00;101211.66;5095637;28;20028;-49
2023/08/14 06:02:57;;;;;;;9.45;3.47;;;;;;;16.42;100.00;101300.25;5075234;28;20035;-49
2023/08/14 06:05:23;;;;;;;4.90;3.08;;;;;;;16.40;100.00;101286.22;5078694;28;20122;-52
2023/08/14 06:07:49;;;;;;;5.50;3.25;;;;;;;15.83;100.00;101173.91;5077055;28;20061;-49
2023/08/14 06:10:14;;;;;;;4.72;3.47;;;;;;;16.42;100.00;101263.06;5074768;28;20031;-50
2023/08/14 06:12:40;;;;;;;6.13;3.88;;;;;;;16.31;100.00;101227.25;5106889;28;20068;-46
2023/08/14 06:15:06;;;;;;;7.47;3.80;;;;;;;16.82;100.00;101294.72;5113737;28;20039;-49
2023/08/14 06:17:34;;;;;;;8.50;3.45;;;;;;;16.91;100.00;101296.03;5113608;28;20028;-49
2023/08/14 06:20:00;;;;;;;8.07;4.20;;;;;;;17.03;100.00;101309.56;5095347;28;20040;-52
2023/08/14 06:22:25;;;;;;;8.50;4.00;;;;;;;17.13;100.00;101297.50;5096475;28;20043;-51
2023/08/14 06:24:51;;;;;;;8.00;4.25;;;;;;;16.88;100.00;101233.25;5108397;28;20032;-52
2023/08/14 06:27:16;;;;;;;7.20;4.10;;;;;;;17.14;100.00;101250.47;5109921;28;20127;-50
2023/08/14 06:29:42;;;;;;;8.90;4.00;;;;;;;17.53;100.00;101298.94;5079776;28;20053;-51
2023/08/14 06:32:07;;;;;;;8.13;4.53;;;;;;;17.65;100.00;101311.63;5106725;28;20115;-48
2023/08/14 06:34:32;;;;;;;10.30;4.32;;;;;;;17.72;100.00;101307.66;5104114;28;20040;-49
2023/08/14 06:36:58;;;;;;;12.07;5.30;;;;;;;17.57;100.00;101257.06;5074891;28;20036;-51
2023/08/14 06:39:23;;;;;;;7.72;4.45;;;;;;;17.95;100.00;101306.38;5108158;28;20089;-49
2023/08/14 06:41:49;;;;;;;7.43;4.20;;;;;;;18.11;100.00;101325.06;5076823;28;20051;-48
2023/08/14 06:44:14;;;;;;;9.20;4.60;;;;;;;18.23;100.00;101333.22;5098729;28;20046;-49
2023/08/14 06:46:40;;;;;;;10.52;4.57;;;;;;;17.90;100.00;101265.84;5095139;28;20127;-53
2023/08/14 06:49:05;;;;;;;9.52;4.28;;;;;;;18.23;100.00;101324.38;5108470;28;20036;-49
2023/08/14 06:51:33;;;;;;;11.05;5.03;;;;;;;18.20;100.00;101324.53;5113133;28;20036;-52
2023/08/14 06:53:59;;;;;;;11.63;4.72;;;;;;;17.99;100.00;101289.31;5111344;28;20436;-49
2023/08/14 06:56:24;;;;;;;7.50;3.97;;;;;;;18.37;100.00;101341.28;5093824;28;20082;-49
2023/08/14 06:58:50;;;;;;;7.30;4.38;;;;;;;18.15;100.00;101282.19;5093394;28;20065;-48
2023/08/14 07:01:15;;;;;;;8.45;3.83;;;;;;;18.73;100.00;101343.69;5101450;28;20044;-48
2023/08/14 07:03:40;;;;;;;6.78;3.63;;;;;;;18.74;100.00;101315.22;5088640;28;20486;-49
2023/08/14 07:06:06;;;;;;;6.63;3.50;;;;;;;19.02;100.00;101332.19;5110604;28;20048;-47
2023/08/14 07:08:31;;;;;;;8.07;3.67;;;;;;;19.39;100.00;101332.66;5112807;28;20043;-49
2023/08/14 07:10:56;;;;;;;6.18;3.63;;;;;;;19.47;100.00;101320.53;5088208;28;20043;-50
2023/08/14 07:13:22;;;;;;;6.95;3.00;;;;;;;19.53;100.00;101295.28;5106374;28;20039;-49
2023/08/14 07:15:48;;;;;;;8.50;3.63;;;;;;;19.59;100.00;101306.44;5113352;28;20073;-49
2023/08/14 07:18:18;;;;;;;5.70;2.92;;;;;;;19.79;100.00;101349.75;5092988;28;20052;-51
2023/08/14 07:20:45;;;;;;;4.57;3.07;;;;;;;19.41;100.00;101296.06;5108541;28;20036;-49
2023/08/14 07:23:17;;;;;;;6.93;3.28;;;;;;;19.34;100.00;101305.34;5108695;28;20422;-52
2023/08/14 07:25:42;;;;;;;4.35;2.80;;;;;;;19.43;100.00;101352.88;5093196;28;20039;-50
2023/08/14 07:28:08;;;;;;;6.15;2.88;;;;;;;19.49;100.00;101376.53;5093566;28;20424;-48
2023/08/14 07:30:34;;;;;;;5.65;2.75;;;;;;;19.08;100.00;101313.13;5094647;28;20036;-51
2023/08/14 07:32:59;;;;;;;5.18;2.50;;;;;;;19.34;100.00;101311.56;5112550;28;20040;-48
2023/08/14 07:35:25;;;;;;;5.28;2.15;;;;;;;19.91;100.00;101327.59;5109018;28;20081;-52
2023/08/14 07:37:50;;;;;;;5.13;2.35;;;;;;;20.53;100.00;101342.28;5111695;28;20043;-48
2023/08/14 07:40:15;;;;;;;4.47;2.63;;;;;;;21.25;100.00;101344.53;5094445;28;20040;-53
2023/08/14 07:42:41;;;;;;;4.63;2.30;;;;;;;22.25;100.00;101361.53;5108106;28;20043;-52
2023/08/14 07:45:06;;;;;;;3.10;1.70;;;;;;;22.96;100.00;101332.94;5084381;28;20032;-52
2023/08/14 07:47:32;;;;;;;3.95;2.00;;;;;;;23.48;100.00;101343.22;5093760;28;20053;-49
2023/08/14 07:49:57;;;;;;;3.72;1.33;;;;;;;23.63;100.00;101319.66;5109797;28;20093;-52
2023/08/14 07:52:24;;;;;;;5.50;1.85;;;;;;;24.30;100.00;101374.28;5111545;28;20119;-52
2023/08/14 07:54:49;;;;;;;4.25;1.80;;;;;;;24.61;100.00;101381.56;5093481;28;20037;-53
2023/08/14 07:57:15;;;;;;;2.40;1.48;;;;;;;25.02;100.00;101375.44;5111570;28;20471;-52
2023/08/14 07:59:40;;;;;;;2.97;1.40;;;;;;;25.17;100.00;101317.59;5112330;28;20545;-50
2023/08/14 08:02:05;;;;;;;6.28;1.83;;;;;;;25.76;100.00;101367.31;5073848;28;20036;-49
2023/08/14 08:04:36;;;;;;;5.22;2.05;;;;;;;25.80;100.00;101329.19;5090923;28;20506;-48
2023/08/14 08:07:01;;;;;;;;;;;;;;;26.17;100.00;101384.28;5094041;28;20133;-52
2023/08/14 08:09:26;;;;;;;4.65;1.58;;;;;;;25.92;100.00;101335.34;5102152;28;20001;-48
2023/08/14 08:11:52;;;;;;;2.00;1.13;;;;;;;26.17;100.00;101383.44;5094613;28;20435;-53
2023/08/14 08:14:17;;;;;;;3.58;1.20;;;;;;;26.19;100.00;101366.13;5095086;28;20043;-53
2023/08/14 08:16:44;;;;;;;3.92;1.40;;;;;;;26.45;100.00;101388.06;5077047;28;20036;-55
2023/08/14 08:19:09;;;;;;;2.28;1.15;;;;;;;26.34;100.00;101376.53;5095309;28;20115;-51
2023/08/14 08:21:36;;;;;;;2.08;1.00;;;;;;;26.46;100.00;101334.94;5095732;28;20114;-54
2023/08/14 08:24:02;;;;;;;2.00;0.80;;;;;;;26.69;100.00;101358.84;5095031;28;20451;-51
2023/08/14 08:26:27;;;;;;;3.22;1.33;;;;;;;27.19;100.00;101383.91;5098441;28;20063;-55
2023/08/14 08:28:52;;;;;;;1.95;1.00;;;;;;;27.26;100.00;101376.91;5095524;28;20063;-51
2023/08/14 08:31:18;;;;;;;4.22;1.35;;;;;;;27.54;100.00;101379.75;5095440;28;20028;-56
2023/08/14 08:33:43;;;;;;;1.77;0.80;;;;;;;27.38;100.00;101335.22;5095574;28;20028;-50
2023/08/14 08:36:08;;;;;;;1.33;0.93;;;;;;;27.38;100.00;101370.34;5077176;28;20043;-56
2023/08/14 08:38:34;;;;;;;2.60;1.02;;;;;;;27.58;100.00;101383.88;5094728;28;20039;-54
2023/08/14 08:41:01;;;;;;;3.50;0.82;;;;;;;27.53;100.00;101375.34;5105876;28;20051;-49
2023/08/14 08:43:27;;;;;;;3.53;1.08;;;;;;;27.78;100.00;101390.94;5100577;28;20044;-54
2023/08/14 08:45:55;;;;;;;3.92;1.10;;;;;;;27.41;100.00;101314.31;5107509;28;20039;-51
2023/08/14 08:48:22;;;;;;;3.63;1.15;;;;;;;28.12;100.00;101397.53;5115652;28;20344;-53
2023/08/14 08:50:49;;;;;;;3.38;1.20;;;;;;;27.82;100.00;101347.19;5097082;28;20061;-51
2023/08/14 08:53:15;;;;;;;1.73;1.23;;;;;;;28.59;100.00;101400.13;5115277;28;20070;-51
2023/08/14 08:55:41;;;;;;;4.47;1.40;;;;;;;28.96;100.00;101406.31;5096624;28;20039;-51
2023/08/14 08:58:06;;;;;;;5.68;1.27;;;;;;;28.44;100.00;101353.75;5096653;28;20038;-53
2023/08/14 09:00:32;;;;;;;4.07;1.50;;;;;;;29.03;100.00;101400.13;5096359;28;20035;-50
2023/08/14 09:02:57;;;;;;;8.73;1.95;;;;;;;29.42;100.00;101397.94;5100543;28;20118;-53
2023/08/14 09:05:23;;;;;;;5.03;1.30;;;;;;;29.06;100.00;101346.63;5115429;28;20030;-53
2023/08/14 09:07:49;;;;;;;2.40;1.38;;;;;;;29.07;100.00;101392.56;5115313;28;20496;-51
2023/08/14 09:10:14;;;;;;;4.50;1.85;;;;;;;28.67;100.00;101384.00;5092687;28;20042;-57
2023/08/14 09:12:40;;;;;;;3.78;1.80;;;;;;;28.44;100.00;101338.38;5097097;28;20062;-51
2023/08/14 09:15:07;;;;;;;5.65;1.17;;;;;;;28.27;100.00;101328.38;5115202;28;20322;-53
2023/08/14 09:17:33;;;;;;;5.63;2.20;;;;;;;28.87;100.00;101374.72;5095715;28;20478;-53
2023/08/14 09:19:58;;;;;;;5.00;1.83;;;;;;;28.94;100.00;101310.78;5083570;28;20094;-50
2023/08/14 09:22:27;;;;;;;5.85;1.83;;;;;;;29.29;100.00;101326.16;5082997;28;20106;-50
2023/08/14 09:24:54;;;;;;;5.13;1.80;;;;;;;29.81;100.00;101367.72;5087734;28;20032;-51
2023/08/14 09:27:19;;;;;;;6.65;1.63;;;;;;;29.87;100.00;101342.63;5101566;28;20071;-55
2023/08/14 09:29:44;;;;;;;8.55;1.67;;;;;;;29.96;100.00;101328.09;5062854;28;20059;-49
2023/08/14 09:32:10;;;;;;;3.83;1.67;;;;;;;30.05;100.00;101360.56;5094390;28;20039;-52
2023/08/14 09:34:36;;;;;;;2.60;1.33;;;;;;;30.27;100.00;101352.84;5094051;28;20565;-55
2023/08/14 09:37:03;;;;;;;3.70;1.85;;;;;;;30.03;100.00;101273.00;5075401;28;20107;-55
2023/08/14 09:39:29;;;;;;;4.80;1.85;;;;;;;30.89;100.00;101343.31;5101321;28;20489;-51
2023/08/14 09:41:54;;;;;;;3.58;1.98;;;;;;;30.49;100.00;101320.50;5114467;28;20062;-49
2023/08/14 09:44:22;;;;;;;3.72;1.70;;;;;;;30.92;100.00;101371.00;5114577;28;20080;-50
2023/08/14 09:46:51;;;;;;;4.00;1.35;;;;;;;30.90;100.00;101354.03;5096150;28;20097;-54
2023/08/14 09:49:17;;;;;;;2.72;1.35;;;;;;;31.21;100.00;101374.09;5096681;28;20036;-50
2023/08/14 09:51:53;;;;;;;6.28;1.98;;;;;;;31.15;100.00;101309.53;5107706;28;20024;-51
2023/08/14 09:54:18;;;;;;;4.07;1.60;;;;;;;30.98;100.00;101290.66;5093971;28;20024;-49
2023/08/14 09:56:43;;;;;;;6.07;2.20;;;;;;;31.21;100.00;101329.75;5093960;28;20439;-50
2023/08/14 09:59:09;;;;;;;3.63;1.73;;;;;;;31.59;100.00;101345.38;5075636;28;20028;-48
2023/08/14 10:01:34;;;;;;;3.72;1.48;;;;;;;31.35;100.00;101303.72;5075160;28;20088;-50
2023/08/14 10:04:00;;;;;;;2.65;1.25;;;;;;;32.12;100.00;101354.75;5092409;28;20373;-53
2023/08/14 10:06:25;;;;;;;4.10;1.40;;;;;;;31.48;100.00;101276.84;5075185;28;20403;-52
2023/08/14 10:08:55;;;;;;;3.60;1.35;;;;;;;31.72;100.00;101295.84;5088940;28;20155;-52
2023/08/14 10:11:22;;;;;;;6.78;1.70;;;;;;;31.98;100.00;101307.31;5095775;28;20318;-50
2023/08/14 10:13:53;;;;;;;4.10;1.70;;;;;;;32.57;100.00;101343.16;5114131;28;20027;-52
2023/08/14 10:16:24;;;;;;;3.67;1.52;;;;;;;32.58;100.00;101299.34;5113895;28;20027;-51
2023/08/14 10:18:53;;;;;;;5.93;1.70;;;;;;;32.49;97.05;101281.31;5113811;28;20555;-55
2023/08/14 10:21:19;;;;;;;4.95;1.80;;;;;;;32.39;100.00;101286.16;5114086;28;20552;-49
2023/08/14 10:23:45;;;;;;;3.53;1.83;;;;;;;32.42;100.00;101318.50;5113431;28;20124;-50
2023/08/14 10:26:11;;;;;;;5.70;1.80;;;;;;;32.02;100.00;101267.00;5077692;28;20074;-51
2023/08/14 10:28:36;;;;;;;5.47;1.95;;;;;;;32.59;98.58;101332.91;5093594;28;20032;-51
2023/08/14 10:31:02;;;;;;;4.72;1.58;;;;;;;31.94;96.91;101307.81;5092586;28;20028;-53
2023/08/14 10:33:28;;;;;;;3.72;1.70;;;;;;;32.02;99.24;101335.06;5074702;28;20464;-52
2023/08/14 10:35:55;;;;;;;5.95;1.95;;;;;;;32.17;96.43;101333.25;5074685;28;20031;-54
2023/08/14 10:38:21;;;;;;;4.43;1.73;;;;;;;31.26;100.00;101278.41;5058519;28;20032;-55
2023/08/14 10:40:52;;;;;;;5.07;1.50;;;;;;;30.59;98.65;101227.97;5092963;28;20474;-51
2023/08/14 10:43:17;;;;;;;4.28;2.10;;;;;;;30.59;100.00;101275.00;5092980;28;20040;-57
2023/08/14 10:45:43;;;;;;;6.22;1.55;;;;;;;30.72;100.00;101279.09;5074138;28;20161;-51
2023/08/14 10:48:09;;;;;;;4.15;1.92;;;;;;;30.29;100.00;101278.34;5093468;28;20080;-47
2023/08/14 10:50:35;;;;;;;3.40;1.40;;;;;;;30.06;100.00;101323.41;5074778;28;20039;-57
2023/08/14 10:53:02;;;;;;;5.78;1.50;;;;;;;30.30;100.00;101299.03;5092838;28;20040;-51
2023/08/14 10:55:41;;;;;;;3.28;1.50;;;;;;;30.74;100.00;101263.44;5074183;28;20419;-50
2023/08/14 10:58:28;;;;;;;4.90;1.65;;;;;;;31.82;98.92;101329.13;5074284;28;20044;-50
2023/08/14 11:00:55;;;;;;;4.18;1.52;;;;;;;31.39;100.00;101311.38;5073870;28;20028;-49
2023/08/14 11:03:20;;;;;;;3.92;1.52;;;;;;;31.08;100.00;101319.41;5074619;28;20082;-49
2023/08/14 11:05:45;;;;;;;3.88;1.70;;;;;;;31.85;100.00;101317.03;5078140;28;20040;-54
2023/08/14 11:08:12;;;;;;;4.15;1.73;;;;;;;32.40;98.47;101259.78;5091905;28;20039;-50
2023/08/14 11:10:38;;;;;;;3.88;1.67;;;;;;;32.71;94.76;101263.31;5111719;28;20039;-52
2023/08/14 11:13:06;;;;;;;4.28;1.70;;;;;;;33.26;95.28;101325.75;5112721;28;20054;-52